Time;durP1;ratioP1;P1;durP2;ratioP2;P2;SDS_P1;SDS_P2;PMS_P1;PMS_P2;Temp;Humidity;BMP_temperature;BMP_pressure;BME280_temperature;BME280_humidity;BME280_pressure;Samples;Min_cycle;Max_cycle;Signal;HPM_P1;HPM_P2
2021/07/10 00:01:33;;;;;;;9.38;6.45;;;;;;;;;;5053000;28;20133;-59
2021/07/10 00:04:03;;;;;;;8.75;5.70;;;;;;;;;;5050351;28;20075;-59
2021/07/10 00:06:31;;;;;;;9.10;5.32;;;;;;;;;;5053337;28;20049;-60
2021/07/10 00:09:00;;;;;;;6.53;5.38;;;;;;;;;;5053177;28;20053;-59
2021/07/10 00:11:28;;;;;;;9.38;6.47;;;;;;;;;;5053507;28;20749;-60
2021/07/10 00:13:57;;;;;;;7.47;5.63;;;;;;;;;;5052720;28;20154;-59
2021/07/10 00:16:26;;;;;;;12.15;6.38;;;;;;;;;;5052444;28;20135;-60
2021/07/10 00:18:55;;;;;;;9.43;6.03;;;;;;;;;;5051954;28;20048;-59
2021/07/10 00:21:23;;;;;;;9.07;5.68;;;;;;;;;;5056997;28;20052;-59
2021/07/10 00:23:53;;;;;;;8.75;5.63;;;;;;;;;;5047034;28;20059;-59
2021/07/10 00:26:21;;;;;;;10.32;5.88;;;;;;;;;;5057634;28;20144;-60
2021/07/10 00:28:49;;;;;;;9.73;5.85;;;;;;;;;;5053463;28;20139;-59
2021/07/10 00:31:18;;;;;;;8.35;5.82;;;;;;;;;;5058359;28;20074;-59
2021/07/10 00:33:48;;;;;;;10.88;5.85;;;;;;;;;;5056934;28;20049;-59
2021/07/10 00:36:16;;;;;;;8.30;5.80;;;;;;;;;;5059631;28;20043;-59
2021/07/10 00:38:45;;;;;;;7.82;5.72;;;;;;;;;;5033477;28;20099;-59
2021/07/10 00:41:13;;;;;;;9.98;6.07;;;;;;;;;;5054853;28;20084;-60
2021/07/10 00:43:41;;;;;;;9.82;5.60;;;;;;;;;;5058984;28;20139;-59
2021/07/10 00:46:10;;;;;;;10.65;6.05;;;;;;;;;;5051711;28;20136;-60
2021/07/10 00:48:38;;;;;;;8.10;5.75;;;;;;;;;;5057433;28;20048;-60
2021/07/10 00:51:08;;;;;;;12.88;6.25;;;;;;;;;;5052486;28;20604;-60
2021/07/10 00:53:36;;;;;;;9.18;6.85;;;;;;;;;;5050799;28;20521;-59
2021/07/10 00:56:05;;;;;;;10.23;6.68;;;;;;;;;;5058534;28;20056;-60
2021/07/10 00:58:33;;;;;;;12.93;6.22;;;;;;;;;;5050219;28;20037;-60
2021/07/10 01:01:02;;;;;;;7.95;5.93;;;;;;;;;;5048473;28;20063;-60
2021/07/10 01:03:32;;;;;;;9.77;6.60;;;;;;;;;;5048218;28;20167;-60
2021/07/10 01:06:01;;;;;;;10.40;6.32;;;;;;;;;;5053023;28;20060;-59
2021/07/10 01:08:31;;;;;;;8.20;6.15;;;;;;;;;;5051436;28;20048;-59
2021/07/10 01:11:00;;;;;;;17.02;5.57;;;;;;;;;;5034198;28;20124;-60
2021/07/10 01:13:28;;;;;;;11.88;5.47;;;;;;;;;;5036385;28;20132;-59
2021/07/10 01:16:00;;;;;;;9.15;6.18;;;;;;;;;;5042855;28;20115;-59
2021/07/10 01:18:28;;;;;;;7.95;5.95;;;;;;;;;;5037398;28;20045;-60
2021/07/10 01:20:58;;;;;;;11.73;5.97;;;;;;;;;;5051239;28;20048;-59
2021/07/10 01:23:26;;;;;;;9.50;6.15;;;;;;;;;;5049966;28;20136;-60
2021/07/10 01:25:55;;;;;;;7.35;6.00;;;;;;;;;;5045163;28;20132;-59
2021/07/10 01:28:23;;;;;;;10.13;6.18;;;;;;;;;;5049221;28;20120;-60
2021/07/10 01:30:51;;;;;;;10.30;5.90;;;;;;;;;;5050067;28;20140;-59
2021/07/10 01:33:20;;;;;;;7.18;5.13;;;;;;;;;;5056273;28;20044;-60
2021/07/10 01:35:49;;;;;;;11.02;6.78;;;;;;;;;;5055728;28;20491;-59
2021/07/10 01:38:19;;;;;;;11.55;5.68;;;;;;;;;;5058122;28;20123;-59
2021/07/10 01:40:47;;;;;;;9.77;6.38;;;;;;;;;;5054480;28;20527;-60
2021/07/10 01:43:15;;;;;;;8.07;5.50;;;;;;;;;;5054046;28;20056;-59
2021/07/10 01:45:43;;;;;;;9.65;6.15;;;;;;;;;;5053559;28;20051;-59
2021/07/10 01:48:13;;;;;;;13.02;6.00;;;;;;;;;;5058008;28;20061;-60
2021/07/10 01:50:41;;;;;;;8.30;5.47;;;;;;;;;;5055490;28;20053;-60
2021/07/10 01:53:11;;;;;;;9.18;5.78;;;;;;;;;;5045455;28;20088;-59
2021/07/10 01:55:41;;;;;;;12.73;6.05;;;;;;;;;;5049773;28;20451;-59
2021/07/10 01:58:09;;;;;;;7.38;5.22;;;;;;;;;;5056569;28;20519;-59
2021/07/10 02:00:38;;;;;;;11.20;5.63;;;;;;;;;;5060981;28;20096;-60
2021/07/10 02:03:07;;;;;;;7.20;5.57;;;;;;;;;;5051961;28;20052;-59
2021/07/10 02:05:35;;;;;;;9.07;5.20;;;;;;;;;;5051341;28;20083;-60
2021/07/10 02:08:04;;;;;;;8.25;5.53;;;;;;;;;;5051196;28;20075;-59
2021/07/10 02:10:33;;;;;;;7.18;5.47;;;;;;;;;;5053913;28;20127;-59
2021/07/10 02:13:05;;;;;;;10.00;5.90;;;;;;;;;;5059743;28;20091;-59
2021/07/10 02:15:34;;;;;;;12.13;6.00;;;;;;;;;;5051651;28;20284;-59
2021/07/10 02:18:02;;;;;;;8.07;5.65;;;;;;;;;;5057497;28;20044;-59
2021/07/10 02:20:30;;;;;;;9.15;5.80;;;;;;;;;;5051533;28;20049;-59
2021/07/10 02:22:59;;;;;;;7.10;5.43;;;;;;;;;;5051131;28;20076;-59
2021/07/10 02:25:29;;;;;;;6.82;5.68;;;;;;;;;;5051607;28;20045;-59
2021/07/10 02:27:57;;;;;;;9.07;5.50;;;;;;;;;;5050725;28;20128;-60
2021/07/10 02:30:28;;;;;;;11.52;5.25;;;;;;;;;;5056095;28;20564;-59
2021/07/10 02:32:57;;;;;;;10.13;5.28;;;;;;;;;;5059567;28;20053;-59
2021/07/10 02:35:28;;;;;;;8.15;5.90;;;;;;;;;;5049196;28;20044;-59
2021/07/10 02:37:56;;;;;;;7.70;5.78;;;;;;;;;;5044067;28;20558;-59
2021/07/10 02:40:25;;;;;;;7.97;5.80;;;;;;;;;;5055380;28;20151;-59
2021/07/10 02:42:54;;;;;;;8.82;5.57;;;;;;;;;;5058577;28;20057;-59
2021/07/10 02:45:22;;;;;;;8.55;5.53;;;;;;;;;;5054922;28;20053;-59
2021/07/10 02:47:52;;;;;;;10.18;5.43;;;;;;;;;;5050377;28;20060;-59
2021/07/10 02:50:22;;;;;;;9.57;5.20;;;;;;;;;;5056839;28;20128;-59
2021/07/10 02:52:51;;;;;;;10.50;5.35;;;;;;;;;;5047677;28;20160;-59
2021/07/10 02:55:19;;;;;;;9.60;5.65;;;;;;;;;;5055507;28;20540;-59
2021/07/10 02:57:47;;;;;;;6.78;4.97;;;;;;;;;;5054515;28;20473;-59
2021/07/10 03:00:18;;;;;;;8.57;5.63;;;;;;;;;;5059515;28;20095;-59
2021/07/10 03:02:46;;;;;;;8.13;6.18;;;;;;;;;;5063823;28;20136;-59
2021/07/10 03:05:17;;;;;;;7.53;5.47;;;;;;;;;;5068388;28;20048;-60
2021/07/10 03:07:47;;;;;;;9.38;5.45;;;;;;;;;;5066493;28;20128;-59
2021/07/10 03:10:17;;;;;;;9.18;5.90;;;;;;;;;;5054106;28;20129;-59
2021/07/10 03:12:45;;;;;;;7.15;5.18;;;;;;;;;;5050845;28;20087;-59
2021/07/10 03:15:15;;;;;;;6.95;4.97;;;;;;;;;;5048491;28;20118;-59
2021/07/10 03:17:43;;;;;;;9.70;4.63;;;;;;;;;;5054584;28;20551;-59
2021/07/10 03:20:12;;;;;;;7.22;4.95;;;;;;;;;;5062528;28;20084;-59
2021/07/10 03:22:42;;;;;;;7.22;4.90;;;;;;;;;;5057498;28;20059;-59
2021/07/10 03:25:12;;;;;;;8.50;5.22;;;;;;;;;;5068692;28;20124;-59
2021/07/10 03:27:40;;;;;;;10.73;5.03;;;;;;;;;;5052939;28;20143;-59
2021/07/10 03:30:10;;;;;;;5.82;4.55;;;;;;;;;;5067379;28;20079;-59
2021/07/10 03:32:39;;;;;;;9.63;4.55;;;;;;;;;;5054989;28;20052;-59
2021/07/10 03:35:08;;;;;;;6.85;4.72;;;;;;;;;;5039783;28;20065;-59
2021/07/10 03:37:36;;;;;;;8.13;4.50;;;;;;;;;;5060857;28;20143;-59
2021/07/10 03:40:07;;;;;;;14.95;5.70;;;;;;;;;;5053339;28;20080;-59
2021/07/10 03:42:35;;;;;;;9.70;4.43;;;;;;;;;;5057667;28;20606;-59
2021/07/10 03:45:04;;;;;;;6.45;4.38;;;;;;;;;;5040405;28;20493;-59
2021/07/10 03:47:33;;;;;;;7.72;4.70;;;;;;;;;;5059093;28;20366;-59
2021/07/10 03:50:02;;;;;;;7.00;4.57;;;;;;;;;;5054577;28;20044;-59
2021/07/10 03:52:30;;;;;;;8.70;5.22;;;;;;;;;;5053337;28;20127;-59
2021/07/10 03:54:59;;;;;;;6.07;4.50;;;;;;;;;;5055174;28;20128;-60
2021/07/10 03:57:29;;;;;;;9.57;4.68;;;;;;;;;;5070945;28;20606;-59
2021/07/10 03:59:57;;;;;;;7.75;4.60;;;;;;;;;;5051108;28;20057;-59
2021/07/10 04:02:26;;;;;;;9.27;4.78;;;;;;;;;;5049680;28;20084;-59
2021/07/10 04:04:54;;;;;;;7.38;4.88;;;;;;;;;;5048985;28;20183;-59
2021/07/10 04:07:22;;;;;;;9.63;5.32;;;;;;;;;;5048652;28;20149;-59
2021/07/10 04:09:50;;;;;;;6.68;4.50;;;;;;;;;;5050110;28;20048;-59
2021/07/10 04:12:19;;;;;;;7.68;4.30;;;;;;;;;;5041588;28;20060;-59
2021/07/10 04:14:48;;;;;;;6.20;4.47;;;;;;;;;;5057511;28;20055;-59
2021/07/10 04:17:16;;;;;;;9.70;5.07;;;;;;;;;;5055402;28;20088;-59
2021/07/10 04:19:46;;;;;;;8.48;4.40;;;;;;;;;;5052555;28;20167;-59
2021/07/10 04:22:14;;;;;;;7.55;4.72;;;;;;;;;;5052994;28;20045;-59
2021/07/10 04:24:42;;;;;;;5.60;4.35;;;;;;;;;;5049021;28;20493;-58
2021/07/10 04:27:10;;;;;;;8.88;4.78;;;;;;;;;;5052257;28;20416;-58
2021/07/10 04:29:39;;;;;;;8.02;4.38;;;;;;;;;;5037826;28;20208;-59
2021/07/10 04:32:09;;;;;;;6.43;4.25;;;;;;;;;;5063139;28;20476;-58
2021/07/10 04:34:37;;;;;;;10.90;4.68;;;;;;;;;;5053589;28;20047;-59
2021/07/10 04:37:06;;;;;;;6.63;4.57;;;;;;;;;;5043237;28;20508;-60
2021/07/10 04:39:34;;;;;;;10.77;4.60;;;;;;;;;;5057567;28;20426;-58
2021/07/10 04:42:03;;;;;;;8.05;4.10;;;;;;;;;;5058145;28;20060;-58
2021/07/10 04:44:31;;;;;;;7.45;4.25;;;;;;;;;;5049533;28;20124;-60
2021/07/10 04:47:00;;;;;;;5.38;4.15;;;;;;;;;;5056350;28;20140;-59
2021/07/10 04:49:29;;;;;;;13.93;4.80;;;;;;;;;;5048762;28;20430;-59
2021/07/10 04:51:58;;;;;;;6.57;4.60;;;;;;;;;;5050672;28;20072;-59
2021/07/10 04:54:26;;;;;;;6.80;4.30;;;;;;;;;;5056969;28;20481;-59
2021/07/10 04:56:54;;;;;;;5.50;4.63;;;;;;;;;;5062323;28;20134;-60
2021/07/10 04:59:23;;;;;;;9.90;4.88;;;;;;;;;;5054272;28;20469;-59
2021/07/10 05:01:51;;;;;;;8.52;4.78;;;;;;;;;;5058878;28;20136;-59
2021/07/10 05:04:20;;;;;;;7.03;4.38;;;;;;;;;;5052724;28;20041;-59
2021/07/10 05:06:50;;;;;;;8.18;4.28;;;;;;;;;;5050084;28;20059;-59
2021/07/10 05:09:19;;;;;;;7.25;4.35;;;;;;;;;;5054408;28;20079;-59
2021/07/10 05:11:48;;;;;;;6.43;4.55;;;;;;;;;;5041539;28;20102;-59
2021/07/10 05:14:16;;;;;;;8.10;4.13;;;;;;;;;;5037735;28;20106;-59
2021/07/10 05:16:45;;;;;;;6.35;4.63;;;;;;;;;;5049380;28;20546;-59
2021/07/10 05:19:13;;;;;;;7.05;4.13;;;;;;;;;;5048666;28;20072;-59
2021/07/10 05:21:41;;;;;;;7.13;4.40;;;;;;;;;;5064655;28;20131;-58
2021/07/10 05:24:11;;;;;;;5.30;4.20;;;;;;;;;;5067820;28;20460;-61
2021/07/10 05:26:39;;;;;;;10.02;4.57;;;;;;;;;;5053641;28;20513;-60
2021/07/10 05:29:08;;;;;;;9.48;4.72;;;;;;;;;;5050516;28;20049;-60
2021/07/10 05:31:36;;;;;;;6.63;4.65;;;;;;;;;;5063724;28;20047;-60
2021/07/10 05:34:04;;;;;;;5.30;4.50;;;;;;;;;;5044295;28;20048;-60
2021/07/10 05:36:33;;;;;;;6.47;4.28;;;;;;;;;;5051344;28;20047;-60
2021/07/10 05:39:01;;;;;;;6.47;4.35;;;;;;;;;;5052198;28;20487;-60
2021/07/10 05:41:31;;;;;;;6.20;4.55;;;;;;;;;;5041017;28;20067;-60
2021/07/10 05:44:00;;;;;;;9.82;5.30;;;;;;;;;;5038034;28;20057;-60
2021/07/10 05:46:28;;;;;;;9.25;5.80;;;;;;;;;;5047132;28;20037;-59
2021/07/10 05:48:57;;;;;;;9.40;5.60;;;;;;;;;;5046701;28;20049;-58
2021/07/10 05:51:25;;;;;;;9.45;7.03;;;;;;;;;;5036173;28;20499;-59
2021/07/10 05:53:53;;;;;;;15.52;8.80;;;;;;;;;;5029440;28;20114;-60
2021/07/10 05:56:21;;;;;;;14.82;10.90;;;;;;;;;;5031757;28;20084;-59
2021/07/10 05:58:51;;;;;;;15.90;10.30;;;;;;;;;;5041432;28;20076;-59
2021/07/10 06:01:19;;;;;;;17.95;11.63;;;;;;;;;;5046599;28;20473;-59
2021/07/10 06:03:48;;;;;;;16.30;10.88;;;;;;;;;;5047760;28;20564;-59
2021/07/10 06:06:17;;;;;;;23.23;13.27;;;;;;;;;;5037741;28;20055;-60
2021/07/10 06:08:45;;;;;;;18.27;12.02;;;;;;;;;;5044489;28;20119;-59
2021/07/10 06:11:13;;;;;;;21.52;12.85;;;;;;;;;;5042478;28;20133;-59
2021/07/10 06:13:42;;;;;;;18.65;12.23;;;;;;;;;;5042861;28;20072;-59
2021/07/10 06:16:12;;;;;;;14.80;10.90;;;;;;;;;;5044396;28;20048;-59
2021/07/10 06:18:40;;;;;;;17.70;11.20;;;;;;;;;;5047953;28;20076;-59
2021/07/10 06:21:09;;;;;;;17.38;11.68;;;;;;;;;;5049171;28;20076;-59
2021/07/10 06:23:39;;;;;;;20.33;13.07;;;;;;;;;;5047242;28;20063;-59
2021/07/10 06:26:07;;;;;;;18.85;12.85;;;;;;;;;;5043045;28;20136;-59
2021/07/10 06:28:35;;;;;;;23.80;13.65;;;;;;;;;;5049541;28;20053;-59
2021/07/10 06:31:03;;;;;;;17.92;12.63;;;;;;;;;;5043972;28;20053;-60
2021/07/10 06:33:33;;;;;;;18.05;14.00;;;;;;;;;;5037742;28;20114;-59
2021/07/10 06:36:01;;;;;;;21.83;13.50;;;;;;;;;;5034318;28;20489;-59
2021/07/10 06:38:30;;;;;;;18.55;12.57;;;;;;;;;;5052333;28;20051;-59
2021/07/10 06:40:58;;;;;;;19.98;14.48;;;;;;;;;;5058772;28;20156;-59
2021/07/10 06:43:27;;;;;;;18.27;12.85;;;;;;;;;;5057056;28;20040;-59
2021/07/10 06:45:55;;;;;;;16.90;11.50;;;;;;;;;;5055395;28;20132;-59
2021/07/10 06:48:24;;;;;;;19.05;12.82;;;;;;;;;;5053245;28;20045;-59
2021/07/10 06:50:54;;;;;;;19.83;14.27;;;;;;;;;;5062447;28;20160;-59
2021/07/10 06:53:22;;;;;;;16.45;12.02;;;;;;;;;;5052578;28;20049;-59
2021/07/10 06:55:51;;;;;;;21.23;11.10;;;;;;;;;;5034400;28;20409;-59
2021/07/10 06:58:19;;;;;;;18.08;11.85;;;;;;;;;;5041750;28;20075;-59
2021/07/10 07:00:47;;;;;;;18.13;12.48;;;;;;;;;;5066156;28;20144;-60
2021/07/10 07:03:16;;;;;;;16.83;9.82;;;;;;;;;;5062686;28;20079;-59
2021/07/10 07:05:44;;;;;;;20.90;11.60;;;;;;;;;;5040133;28;20095;-60
2021/07/10 07:08:14;;;;;;;23.77;11.43;;;;;;;;;;5050497;28;20108;-58
2021/07/10 07:10:42;;;;;;;23.65;11.05;;;;;;;;;;5052686;28;20052;-60
2021/07/10 07:13:10;;;;;;;15.48;10.43;;;;;;;;;;5059437;28;20110;-59
2021/07/10 07:15:39;;;;;;;13.60;9.25;;;;;;;;;;5055997;28;20400;-58
2021/07/10 07:18:08;;;;;;;16.58;10.30;;;;;;;;;;5050352;28;20424;-58
2021/07/10 07:20:36;;;;;;;12.90;9.90;;;;;;;;;;5050567;28;20568;-59
2021/07/10 07:23:05;;;;;;;16.08;10.73;;;;;;;;;;5050928;28;20107;-59
2021/07/10 07:25:35;;;;;;;13.43;10.18;;;;;;;;;;5049504;28;20233;-58
2021/07/10 07:28:04;;;;;;;16.60;10.90;;;;;;;;;;5051034;28;20624;-59
2021/07/10 07:30:33;;;;;;;12.20;9.10;;;;;;;;;;5048267;28;20421;-59
2021/07/10 07:33:01;;;;;;;15.05;9.63;;;;;;;;;;5049993;28;20124;-58
2021/07/10 07:35:30;;;;;;;13.80;10.73;;;;;;;;;;5056365;28;20052;-59
2021/07/10 07:37:58;;;;;;;14.23;9.43;;;;;;;;;;5055252;28;20076;-59
2021/07/10 07:40:26;;;;;;;17.77;10.35;;;;;;;;;;5059099;28;20417;-59
2021/07/10 07:42:56;;;;;;;15.20;9.57;;;;;;;;;;5046147;28;20056;-59
2021/07/10 07:45:25;;;;;;;14.38;9.73;;;;;;;;;;5052067;28;20053;-59
2021/07/10 07:47:54;;;;;;;13.25;9.38;;;;;;;;;;5052294;28;20529;-59
2021/07/10 07:50:22;;;;;;;14.32;10.02;;;;;;;;;;5063532;28;20049;-59
2021/07/10 07:52:51;;;;;;;13.85;9.98;;;;;;;;;;5053054;28;20496;-58
2021/07/10 07:55:19;;;;;;;11.02;8.60;;;;;;;;;;5063441;28;20051;-59
2021/07/10 07:57:47;;;;;;;15.55;9.30;;;;;;;;;;5058026;28;20095;-59
2021/07/10 08:00:19;;;;;;;11.02;8.43;;;;;;;;;;5058365;28;20123;-59
2021/07/10 08:02:48;;;;;;;12.02;9.02;;;;;;;;;;5057304;28;20072;-59
2021/07/10 08:05:17;;;;;;;14.10;9.80;;;;;;;;;;5053178;28;20139;-59
2021/07/10 08:07:45;;;;;;;12.95;9.13;;;;;;;;;;5053023;28;20079;-59
2021/07/10 08:10:14;;;;;;;15.30;9.90;;;;;;;;;;5040133;28;20041;-59
2021/07/10 08:12:45;;;;;;;12.63;9.65;;;;;;;;;;5056600;28;20071;-60
2021/07/10 08:15:14;;;;;;;15.23;11.35;;;;;;;;;;5065176;28;20045;-60
2021/07/10 08:17:44;;;;;;;13.55;9.93;;;;;;;;;;5051993;28;20091;-59
2021/07/10 08:20:13;;;;;;;11.07;7.82;;;;;;;;;;5053181;28;20044;-59
2021/07/10 08:22:42;;;;;;;14.43;9.82;;;;;;;;;;5053194;28;20106;-59
2021/07/10 08:25:12;;;;;;;11.55;8.93;;;;;;;;;;5053345;28;20049;-58
2021/07/10 08:27:40;;;;;;;10.57;8.85;;;;;;;;;;5051340;28;20329;-59
2021/07/10 08:30:09;;;;;;;13.63;9.13;;;;;;;;;;5041561;28;20136;-59
2021/07/10 08:32:37;;;;;;;15.18;10.70;;;;;;;;;;5053939;28;20381;-59
2021/07/10 08:35:08;;;;;;;10.93;8.90;;;;;;;;;;5042712;28;20111;-59
2021/07/10 08:37:36;;;;;;;11.52;7.82;;;;;;;;;;5054693;28;20100;-58
2021/07/10 08:40:05;;;;;;;13.95;10.23;;;;;;;;;;5054476;28;20045;-59
2021/07/10 08:42:34;;;;;;;13.82;9.82;;;;;;;;;;5055407;28;20048;-58
2021/07/10 08:45:05;;;;;;;11.25;8.93;;;;;;;;;;5048827;28;20094;-57
2021/07/10 08:47:35;;;;;;;12.18;9.07;;;;;;;;;;5056849;28;20045;-57
2021/07/10 08:50:05;;;;;;;11.38;8.18;;;;;;;;;;5052385;28;20485;-57
2021/07/10 08:52:36;;;;;;;9.90;8.07;;;;;;;;;;5061105;28;20068;-57
2021/07/10 08:55:04;;;;;;;10.23;7.65;;;;;;;;;;5049088;28;20044;-58
2021/07/10 08:57:34;;;;;;;10.57;7.55;;;;;;;;;;5042962;28;20069;-57
2021/07/10 09:00:05;;;;;;;12.27;9.60;;;;;;;;;;5036034;28;20077;-57
2021/07/10 09:02:34;;;;;;;14.85;10.77;;;;;;;;;;5033064;28;20053;-57
2021/07/10 09:05:03;;;;;;;11.13;9.00;;;;;;;;;;5047196;28;20561;-58
2021/07/10 09:07:31;;;;;;;10.18;7.80;;;;;;;;;;5041908;28;20132;-58
2021/07/10 09:10:01;;;;;;;11.95;8.85;;;;;;;;;;5033697;28;20500;-57
2021/07/10 09:12:30;;;;;;;13.50;9.85;;;;;;;;;;5038203;28;20152;-58
2021/07/10 09:15:17;;;;;;;14.00;8.52;;;;;;;;;;5049056;28;20092;-58
2021/07/10 09:17:46;;;;;;;10.50;7.25;;;;;;;;;;5051722;28;20461;-57
2021/07/10 09:20:21;;;;;;;13.55;8.63;;;;;;;;;;5038065;28;20058;-57
2021/07/10 09:22:50;;;;;;;9.57;7.38;;;;;;;;;;5047589;28;20091;-58
2021/07/10 09:25:29;;;;;;;12.30;9.23;;;;;;;;;;5035501;28;20048;-57
2021/07/10 09:27:58;;;;;;;11.80;8.20;;;;;;;;;;5043532;28;20073;-57
2021/07/10 09:30:33;;;;;;;11.65;7.43;;;;;;;;;;5051460;28;20048;-57
2021/07/10 09:33:16;;;;;;;12.43;8.30;;;;;;;;;;5052231;28;20113;-56
2021/07/10 09:35:51;;;;;;;12.95;8.55;;;;;;;;;;5040974;28;20111;-57
2021/07/10 09:38:20;;;;;;;10.45;7.15;;;;;;;;;;5039889;28;20057;-57
2021/07/10 09:41:00;;;;;;;10.55;7.40;;;;;;;;;;5045027;28;20515;-57
2021/07/10 09:43:32;;;;;;;11.18;7.45;;;;;;;;;;5032399;28;20410;-58
2021/07/10 09:46:02;;;;;;;11.32;7.18;;;;;;;;;;5031624;28;20053;-58
2021/07/10 09:48:33;;;;;;;8.13;6.80;;;;;;;;;;5046149;28;20090;-58
2021/07/10 09:51:18;;;;;;;14.00;8.20;;;;;;;;;;5051572;28;20063;-58
2021/07/10 09:54:05;;;;;;;10.52;6.85;;;;;;;;;;5036422;28;20099;-58
2021/07/10 09:56:37;;;;;;;8.93;6.35;;;;;;;;;;5043740;28;20113;-58
2021/07/10 09:59:19;;;;;;;10.63;6.32;;;;;;;;;;5047192;28;20481;-59
2021/07/10 10:01:48;;;;;;;9.48;6.03;;;;;;;;;;5048298;28;20143;-59
2021/07/10 10:04:21;;;;;;;7.90;5.97;;;;;;;;;;5050990;28;20076;-58
2021/07/10 10:06:50;;;;;;;7.15;5.20;;;;;;;;;;5050245;28;20041;-58
2021/07/10 10:09:20;;;;;;;8.77;5.60;;;;;;;;;;5048218;28;20186;-58
2021/07/10 10:11:52;;;;;;;6.05;5.10;;;;;;;;;;5050480;28;20056;-58
2021/07/10 10:14:21;;;;;;;5.97;4.82;;;;;;;;;;5050138;28;20057;-58
2021/07/10 10:16:51;;;;;;;4.93;4.43;;;;;;;;;;5044527;28;20122;-58
2021/07/10 10:19:21;;;;;;;5.43;4.40;;;;;;;;;;5043197;28;20041;-58
2021/07/10 10:21:50;;;;;;;7.80;4.88;;;;;;;;;;5051343;28;20135;-58
2021/07/10 10:24:20;;;;;;;6.07;4.38;;;;;;;;;;5051226;28;20140;-59
2021/07/10 10:26:48;;;;;;;6.70;4.55;;;;;;;;;;5049188;28;20552;-59
2021/07/10 10:29:22;;;;;;;4.93;4.43;;;;;;;;;;5031736;28;20052;-59
2021/07/10 10:31:51;;;;;;;6.57;5.03;;;;;;;;;;5048393;28;20079;-57
2021/07/10 10:34:19;;;;;;;7.38;4.85;;;;;;;;;;5030170;28;20136;-57
2021/07/10 10:36:49;;;;;;;6.03;4.75;;;;;;;;;;5031404;28;20454;-58
2021/07/10 10:39:18;;;;;;;6.55;5.45;;;;;;;;;;5049349;28;20045;-57
2021/07/10 10:41:48;;;;;;;7.57;5.60;;;;;;;;;;5041455;28;20143;-58
2021/07/10 10:44:22;;;;;;;7.72;5.65;;;;;;;;;;5047973;28;20089;-58
2021/07/10 10:46:52;;;;;;;7.72;5.72;;;;;;;;;;5047924;28;20045;-58
2021/07/10 10:49:51;;;;;;;5.57;5.00;;;;;;;;;;5039794;28;20138;-58
2021/07/10 10:52:24;;;;;;;5.28;4.78;;;;;;;;;;5061154;28;20044;-57
2021/07/10 10:54:54;;;;;;;4.60;4.03;;;;;;;;;;5051120;28;20077;-57
2021/07/10 10:57:36;;;;;;;4.97;4.53;;;;;;;;;;5045445;28;20129;-58
2021/07/10 11:00:17;;;;;;;4.70;4.18;;;;;;;;;;5053303;28;20131;-57
2021/07/10 11:03:07;;;;;;;5.22;4.60;;;;;;;;;;5051823;28;20040;-57
2021/07/10 11:05:36;;;;;;;6.45;4.32;;;;;;;;;;5047144;28;20053;-58
2021/07/10 11:08:22;;;;;;;5.47;4.32;;;;;;;;;;5043136;28;20140;-58
2021/07/10 11:11:05;;;;;;;5.90;4.53;;;;;;;;;;5049650;28;20052;-58
2021/07/10 11:13:35;;;;;;;6.60;4.60;;;;;;;;;;5038138;28;20049;-58
2021/07/10 11:16:07;;;;;;;5.95;4.50;;;;;;;;;;5051930;28;20048;-57
2021/07/10 11:18:49;;;;;;;4.75;4.35;;;;;;;;;;5056579;28;20060;-58
2021/07/10 11:21:45;;;;;;;7.43;4.47;;;;;;;;;;5049591;28;20053;-58
2021/07/10 11:24:24;;;;;;;5.63;4.45;;;;;;;;;;5033076;28;20045;-59
2021/07/10 11:27:11;;;;;;;6.55;4.65;;;;;;;;;;5053321;28;20131;-59
2021/07/10 11:29:40;;;;;;;15.93;4.68;;;;;;;;;;5058561;28;20091;-60
2021/07/10 11:32:25;;;;;;;7.40;4.35;;;;;;;;;;5065078;28;20123;-59
2021/07/10 11:34:56;;;;;;;5.22;4.40;;;;;;;;;;5060956;28;20048;-59
2021/07/10 11:37:25;;;;;;;5.57;4.18;;;;;;;;;;5058334;28;20431;-59
2021/07/10 11:39:58;;;;;;;7.10;4.30;;;;;;;;;;5063911;28;20139;-59
2021/07/10 11:42:41;;;;;;;5.05;4.38;;;;;;;;;;5045420;28;20240;-59
2021/07/10 11:45:23;;;;;;;6.32;4.30;;;;;;;;;;5043779;28;20459;-59
2021/07/10 11:47:53;;;;;;;5.22;4.05;;;;;;;;;;5046814;28;20068;-59
2021/07/10 11:50:22;;;;;;;5.60;4.18;;;;;;;;;;5048343;28;20145;-58
2021/07/10 11:52:58;;;;;;;5.32;3.38;;;;;;;;;;5052772;28;20157;-59
2021/07/10 11:55:27;;;;;;;5.80;4.20;;;;;;;;;;5052002;28;20045;-59
2021/07/10 11:57:55;;;;;;;4.03;3.45;;;;;;;;;;5042339;28;20041;-59
2021/07/10 12:00:25;;;;;;;6.20;3.72;;;;;;;;;;5042962;28;20152;-59
2021/07/10 12:02:55;;;;;;;5.60;4.00;;;;;;;;;;5055913;28;20049;-58
2021/07/10 12:05:24;;;;;;;6.30;3.90;;;;;;;;;;5066215;28;20066;-58
2021/07/10 12:07:53;;;;;;;10.20;4.88;;;;;;;;;;5073643;28;20139;-58
2021/07/10 12:10:23;;;;;;;30.98;8.25;;;;;;;;;;5061466;28;20487;-58
2021/07/10 12:12:54;;;;;;;10.82;4.13;;;;;;;;;;5052304;28;20132;-58
2021/07/10 12:15:23;;;;;;;5.43;3.45;;;;;;;;;;5052111;28;20057;-58
2021/07/10 12:17:53;;;;;;;5.28;3.55;;;;;;;;;;5050069;28;20538;-58
2021/07/10 12:20:23;;;;;;;4.32;3.50;;;;;;;;;;5045877;28;20052;-58
2021/07/10 12:22:53;;;;;;;6.30;3.47;;;;;;;;;;5043537;28;20059;-57
2021/07/10 12:25:22;;;;;;;5.75;3.25;;;;;;;;;;5044338;28;20051;-57
2021/07/10 12:27:55;;;;;;;6.57;3.50;;;;;;;;;;5046749;28;20041;-57
2021/07/10 12:30:40;;;;;;;3.78;3.33;;;;;;;;;;5048660;28;20053;-58
2021/07/10 12:33:24;;;;;;;8.05;3.40;;;;;;;;;;5049136;28;20064;-57
2021/07/10 12:36:01;;;;;;;3.38;3.08;;;;;;;;;;5039907;28;20507;-57
2021/07/10 12:38:30;;;;;;;4.60;3.75;;;;;;;;;;5050819;28;20562;-59
2021/07/10 12:41:13;;;;;;;3.53;2.97;;;;;;;;;;5047452;28;20053;-57
2021/07/10 12:43:41;;;;;;;6.35;3.58;;;;;;;;;;5050652;28;20052;-58
2021/07/10 12:46:10;;;;;;;5.43;3.40;;;;;;;;;;5057530;28;20563;-57
2021/07/10 12:48:39;;;;;;;5.55;3.30;;;;;;;;;;5055119;28;20102;-58
2021/07/10 12:51:08;;;;;;;3.95;3.17;;;;;;;;;;5045962;28;20041;-58
2021/07/10 12:53:39;;;;;;;3.80;3.40;;;;;;;;;;5045718;28;20053;-58
2021/07/10 12:56:12;;;;;;;3.67;3.30;;;;;;;;;;5051509;28;20049;-58
2021/07/10 12:58:41;;;;;;;7.25;3.75;;;;;;;;;;5048940;28;20103;-57
2021/07/10 13:01:09;;;;;;;5.80;3.72;;;;;;;;;;5043404;28;20063;-58
2021/07/10 13:03:38;;;;;;;4.13;3.30;;;;;;;;;;5051090;28;20140;-59
2021/07/10 13:06:09;;;;;;;3.47;3.10;;;;;;;;;;5038570;28;20421;-58
2021/07/10 13:08:37;;;;;;;5.95;3.28;;;;;;;;;;5045694;28;20353;-58
2021/07/10 13:11:07;;;;;;;4.20;3.80;;;;;;;;;;5051767;28;20129;-57
2021/07/10 13:13:37;;;;;;;4.70;3.38;;;;;;;;;;5044162;28;20227;-58
2021/07/10 13:16:08;;;;;;;3.58;2.90;;;;;;;;;;5050017;28;20060;-57
2021/07/10 13:18:47;;;;;;;4.75;3.80;;;;;;;;;;5032226;28;20049;-59
2021/07/10 13:21:20;;;;;;;4.88;3.38;;;;;;;;;;5034488;28;20069;-57
2021/07/10 13:23:52;;;;;;;4.15;3.35;;;;;;;;;;5045500;28;20057;-58
2021/07/10 13:26:21;;;;;;;3.88;3.00;;;;;;;;;;5049908;28;20044;-57
2021/07/10 13:28:50;;;;;;;5.68;3.10;;;;;;;;;;5071746;28;20410;-58
2021/07/10 13:31:27;;;;;;;4.38;3.10;;;;;;;;;;5055368;28;20072;-58
2021/07/10 13:33:58;;;;;;;3.40;3.10;;;;;;;;;;5052959;28;20519;-57
2021/07/10 13:36:29;;;;;;;3.67;3.08;;;;;;;;;;5051984;28;20071;-58
2021/07/10 13:39:03;;;;;;;4.07;3.03;;;;;;;;;;5048457;28;20076;-59
2021/07/10 13:41:32;;;;;;;3.28;2.95;;;;;;;;;;5053550;28;20424;-59
2021/07/10 13:44:01;;;;;;;3.53;2.88;;;;;;;;;;5050342;28;20049;-58
2021/07/10 13:46:30;;;;;;;3.40;3.10;;;;;;;;;;5035496;28;20049;-58
2021/07/10 13:48:59;;;;;;;3.50;3.10;;;;;;;;;;5051610;28;20060;-58
2021/07/10 13:51:29;;;;;;;4.28;3.20;;;;;;;;;;5043682;28;20041;-58
2021/07/10 13:53:57;;;;;;;5.07;3.22;;;;;;;;;;5039468;28;20140;-58
2021/07/10 13:56:25;;;;;;;3.75;3.00;;;;;;;;;;5042001;28;20132;-58
2021/07/10 13:59:01;;;;;;;7.20;3.00;;;;;;;;;;5049402;28;20136;-58
2021/07/10 14:01:29;;;;;;;3.88;2.97;;;;;;;;;;5048505;28;20140;-58
2021/07/10 14:03:58;;;;;;;5.40;3.40;;;;;;;;;;5054097;28;20124;-57
2021/07/10 14:06:26;;;;;;;3.85;3.25;;;;;;;;;;5054870;28;20475;-57
2021/07/10 14:08:56;;;;;;;3.95;3.33;;;;;;;;;;5052282;28;20053;-57
2021/07/10 14:11:24;;;;;;;4.82;3.70;;;;;;;;;;5052274;28;20052;-58
2021/07/10 14:13:53;;;;;;;6.10;3.72;;;;;;;;;;5051837;28;20099;-57
2021/07/10 14:16:22;;;;;;;3.72;3.30;;;;;;;;;;5055912;28;20094;-57
2021/07/10 14:18:50;;;;;;;7.15;3.40;;;;;;;;;;5055378;28;20484;-58
2021/07/10 14:21:19;;;;;;;5.72;3.50;;;;;;;;;;5059145;28;20419;-58
2021/07/10 14:23:47;;;;;;;4.93;3.00;;;;;;;;;;5056277;28;20115;-58
2021/07/10 14:26:17;;;;;;;4.43;3.25;;;;;;;;;;5051303;28;20124;-58
2021/07/10 14:28:45;;;;;;;4.25;3.17;;;;;;;;;;5054481;28;20084;-58
2021/07/10 14:31:14;;;;;;;5.30;3.53;;;;;;;;;;5049124;28;20477;-57
2021/07/10 14:33:43;;;;;;;6.18;3.13;;;;;;;;;;5048351;28;20057;-58
2021/07/10 14:36:11;;;;;;;3.67;2.70;;;;;;;;;;5046832;28;20456;-59
2021/07/10 14:38:39;;;;;;;5.38;3.05;;;;;;;;;;5050709;28;20136;-58
2021/07/10 14:41:08;;;;;;;3.40;3.10;;;;;;;;;;5049688;28;20147;-57
2021/07/10 14:43:38;;;;;;;6.50;2.80;;;;;;;;;;5044970;28;20450;-57
2021/07/10 14:46:08;;;;;;;4.22;3.28;;;;;;;;;;5054044;28;20129;-59
2021/07/10 14:48:36;;;;;;;5.25;2.97;;;;;;;;;;5043424;28;20080;-58
2021/07/10 14:51:05;;;;;;;3.60;2.90;;;;;;;;;;5058197;28;20564;-58
2021/07/10 14:53:33;;;;;;;3.42;2.85;;;;;;;;;;5054029;28;20543;-58